Terminal Aerodrome Forecast
Issued by NWS Wilmington, NC

Home | Current Version | Previous Version | Text Only | Print | Product List | Glossary On
Versions: 1 2 3 4 5 6 7 8 9 10 11 12 13 14 15 16 17 18 19 20
814
FTUS42 KILM 141120
TAFILM
TAF
KILM 141120Z 1412/1512 01008KT P6SM SKC
     FM141400 03011KT P6SM FEW120 SCT250
     FM142100 06007KT P6SM SCT050 BKN200
     FM150400 05004KT P6SM BKN050 OVC100
     FM150800 06006KT 6SM -RA BKN012=

USA.gov is the U.S. government's official web portal to all federal, state and local government web resources and services.